KORL

Orlando Executive Airport

Orlando, Florida, USA
METAR KORL 201653Z 29005KT 10SM FEW036 29/22 A3005 RMK AO2 SLP178 T02940222 PNO $
Observed Flight Rules
Oct-20 @ 16:53 UTC (20 minutes ago) Visual Flight Rules
Wind Visibility Clouds
290° at 5 knots 10 miles
  • Few at 3,600' AGL
Temperatures Readings
Current 29°C / 84°F
Dewpoint 22°C / 72°F
Humidity 66%
Altimeter 30.05" Hg
Pressure 1017.8 hPa
Elevation 37
METAR KORL 201653Z 29005KT 10SM FEW036 29/22 A3005 RMK AO2 SLP178 T02940222 PNO $
Observed Flight Rules
Oct-20 @ 16:53 UTC
(20 minutes ago)
VFR
Wind Visibility
290° at 5 knots 10 miles
Clouds
  • Few at 3,600' AGL
Temperature Dewpoint
29°C / 84°F 22°C / 72°F
Humidity Altimeter Pressure
66% 30.05" Hg 1017.8 hPa